Time;durP1;ratioP1;P1;durP2;ratioP2;P2;SDS_P1;SDS_P2;PMS_P1;PMS_P2;Temp;Humidity;BMP_temperature;BMP_pressure;BME280_temperature;BME280_humidity;BME280_pressure;Samples;Min_cycle;Max_cycle;Signal;HPM_P1;HPM_P2
2023/10/05 00:02:08;;;;;;;6.87;2.33;;;;;;;12.06;100.00;102062.38;7393853;19;20413;-50
2023/10/05 00:04:45;;;;;;;8.00;2.57;;;;;;;12.11;100.00;102057.47;7370356;19;20414;-50
2023/10/05 00:07:22;;;;;;;5.70;2.23;;;;;;;12.07;100.00;102061.56;7393872;19;20451;-53
2023/10/05 00:09:52;;;;;;;9.30;3.13;;;;;;;12.19;100.00;102048.44;7370473;19;20414;-53
2023/10/05 00:12:22;;;;;;;5.90;2.13;;;;;;;12.17;100.00;102033.63;7397114;19;20396;-55
2023/10/05 00:15:11;;;;;;;9.30;2.20;;;;;;;12.13;100.00;102032.56;7368687;19;20399;-53
2023/10/05 00:17:41;;;;;;;14.07;2.30;;;;;;;12.13;100.00;102024.78;7391201;19;20383;-53
2023/10/05 00:20:15;;;;;;;5.37;1.77;;;;;;;12.14;100.00;102024.88;7369415;19;20984;-52
2023/10/05 00:22:49;;;;;;;7.87;2.57;;;;;;;12.14;100.00;102031.75;7391752;19;20419;-54
2023/10/05 00:25:23;;;;;;;5.70;2.00;;;;;;;12.19;100.00;102024.25;7368865;19;20399;-49
2023/10/05 00:27:54;;;;;;;13.93;2.37;;;;;;;12.19;100.00;102016.50;7393345;19;20384;-51
2023/10/05 00:30:24;;;;;;;5.60;2.40;;;;;;;12.20;100.00;102006.22;7368733;19;20425;-53
2023/10/05 00:32:57;;;;;;;12.47;2.00;;;;;;;12.32;100.00;101998.25;7391095;19;20391;-51
2023/10/05 00:35:33;;;;;;;10.13;2.50;;;;;;;12.34;100.00;102006.97;7369026;19;20391;-51
2023/10/05 00:38:04;;;;;;;8.13;2.53;;;;;;;12.32;100.00;101985.31;7393667;19;20399;-52
2023/10/05 00:40:36;;;;;;;8.90;2.30;;;;;;;12.34;100.00;101999.22;7368108;19;20435;-49
2023/10/05 00:43:12;;;;;;;6.70;1.87;;;;;;;12.39;100.00;101996.88;7392717;19;20417;-57
2023/10/05 00:45:46;;;;;;;11.33;2.40;;;;;;;12.37;100.00;101988.16;7368406;19;20412;-51
2023/10/05 00:48:27;;;;;;;11.20;2.20;;;;;;;12.38;100.00;101989.91;7396748;19;20937;-52
2023/10/05 00:51:06;;;;;;;10.57;2.30;;;;;;;12.37;100.00;101990.72;7367741;19;20443;-53
2023/10/05 00:53:36;;;;;;;13.30;2.80;;;;;;;12.38;100.00;101974.41;7390714;19;20392;-53
2023/10/05 00:56:12;;;;;;;6.57;2.00;;;;;;;12.35;100.00;101974.25;7372072;19;20423;-52
2023/10/05 00:58:46;;;;;;;12.30;2.33;;;;;;;12.35;100.00;101969.94;7394731;19;20420;-52
2023/10/05 01:01:23;;;;;;;5.80;1.90;;;;;;;12.38;100.00;101958.88;7372914;19;20535;-55
2023/10/05 01:04:18;;;;;;;11.80;2.50;;;;;;;12.41;100.00;101953.88;7368169;19;20434;-54
2023/10/05 01:06:55;;;;;;;8.87;2.17;;;;;;;12.43;100.00;101952.25;7389911;19;20406;-50
2023/10/05 01:09:47;;;;;;;10.33;2.43;;;;;;;12.38;100.00;101953.69;7369955;19;20972;-51
2023/10/05 01:12:22;;;;;;;4.07;1.30;;;;;;;12.41;100.00;101957.31;7389547;19;20466;-52
2023/10/05 01:14:53;;;;;;;8.57;1.90;;;;;;;12.37;100.00;101955.38;7367553;19;20429;-53
2023/10/05 01:17:25;;;;;;;5.83;2.40;;;;;;;12.35;100.00;101956.13;7391584;19;20394;-54
2023/10/05 01:19:59;;;;;;;8.43;2.30;;;;;;;12.37;100.00;101967.44;7362375;19;20414;-56
2023/10/05 01:22:33;;;;;;;8.10;2.00;;;;;;;12.37;100.00;101951.91;7390923;19;20398;-56
2023/10/05 01:25:05;;;;;;;9.03;2.20;;;;;;;12.38;100.00;101954.59;7368779;19;20462;-53
2023/10/05 01:27:36;;;;;;;9.30;2.20;;;;;;;12.38;100.00;101948.50;7389033;19;20391;-54
2023/10/05 01:30:12;;;;;;;6.43;2.00;;;;;;;12.35;100.00;101946.66;7366960;19;20447;-53
2023/10/05 01:32:43;;;;;;;12.37;2.33;;;;;;;12.35;100.00;101951.81;7388805;19;20403;-53
2023/10/05 01:35:14;;;;;;;7.67;2.33;;;;;;;12.35;100.00;101945.78;7370413;19;20752;-52
2023/10/05 01:37:44;;;;;;;15.33;2.27;;;;;;;12.39;100.00;101945.09;7399357;19;20414;-51
2023/10/05 01:40:23;;;;;;;7.37;2.30;;;;;;;12.33;100.00;101949.97;7373334;19;20478;-55
2023/10/05 01:42:54;;;;;;;8.93;1.80;;;;;;;12.30;100.00;101948.09;7398819;19;20398;-51
2023/10/05 01:45:29;;;;;;;9.13;2.40;;;;;;;12.32;100.00;101943.00;7374756;19;20402;-51
2023/10/05 01:48:01;;;;;;;8.13;1.80;;;;;;;12.33;100.00;101939.59;7395837;19;20827;-54
2023/10/05 01:50:32;;;;;;;13.97;2.13;;;;;;;12.33;100.00;101944.78;7373805;19;20846;-53
2023/10/05 01:53:07;;;;;;;9.83;2.10;;;;;;;12.33;100.00;101939.59;7392784;19;20418;-53
2023/10/05 01:55:40;;;;;;;9.47;2.30;;;;;;;12.29;100.00;101944.63;7376098;19;20410;-54
2023/10/05 01:58:13;;;;;;;10.83;2.60;;;;;;;12.29;100.00;101944.63;7400756;19;20391;-54
2023/10/05 02:00:44;;;;;;;8.17;2.00;;;;;;;12.36;100.00;101939.78;7375830;19;20458;-56
2023/10/05 02:03:14;;;;;;;11.20;2.67;;;;;;;12.31;100.00;101930.88;7401644;19;20399;-52
2023/10/05 02:05:44;;;;;;;9.50;2.50;;;;;;;12.26;100.00;101943.59;7376530;19;20423;-55
2023/10/05 02:08:14;;;;;;;11.70;2.50;;;;;;;12.30;100.00;101935.16;7401943;19;20412;-51
2023/10/05 02:10:48;;;;;;;12.10;2.27;;;;;;;12.28;100.00;101935.09;7375121;19;20482;-52
2023/10/05 02:13:19;;;;;;;9.27;2.23;;;;;;;12.27;100.00;101933.28;7398499;19;20407;-54
2023/10/05 02:15:54;;;;;;;7.00;2.30;;;;;;;12.19;100.00;101936.31;7375902;19;20426;-52
2023/10/05 02:18:26;;;;;;;4.73;1.93;;;;;;;12.19;100.00;101934.59;7398549;19;20751;-54
2023/10/05 02:21:05;;;;;;;13.80;2.80;;;;;;;12.17;100.00;101924.97;7374342;19;20482;-56
2023/10/05 02:23:41;;;;;;;13.20;2.97;;;;;;;12.09;100.00;101930.59;7398459;19;20418;-53
2023/10/05 02:26:24;;;;;;;9.17;2.13;;;;;;;12.09;100.00;101919.38;7377813;19;20434;-55
2023/10/05 02:28:55;;;;;;;8.43;2.50;;;;;;;12.12;100.00;101930.78;7377960;19;20388;-54
2023/10/05 02:31:28;;;;;;;11.53;3.00;;;;;;;12.09;100.00;101921.94;7398211;19;20446;-53
2023/10/05 02:33:59;;;;;;;6.70;1.90;;;;;;;12.13;100.00;101923.91;7377134;19;20407;-54
2023/10/05 02:36:30;;;;;;;7.83;2.57;;;;;;;12.08;100.00;101927.94;7399480;19;20407;-51
2023/10/05 02:39:01;;;;;;;5.90;2.13;;;;;;;12.11;100.00;101928.97;7376660;19;20451;-54
2023/10/05 02:41:38;;;;;;;6.17;1.90;;;;;;;12.06;100.00;101926.97;7397930;19;20439;-53
2023/10/05 02:44:17;;;;;;;8.77;3.03;;;;;;;12.03;100.00;101925.06;7376451;19;20399;-55
2023/10/05 02:46:48;;;;;;;9.47;2.47;;;;;;;12.03;100.00;101930.25;7397268;19;20486;-51
2023/10/05 02:49:18;;;;;;;7.30;2.53;;;;;;;12.04;100.00;101924.28;7374908;19;20419;-51
2023/10/05 02:51:49;;;;;;;6.80;2.20;;;;;;;12.09;100.00;101914.19;7395759;19;20470;-55
2023/10/05 02:54:22;;;;;;;9.63;2.73;;;;;;;12.08;100.00;101922.75;7374129;19;20418;-50
2023/10/05 02:56:55;;;;;;;8.50;2.43;;;;;;;12.08;100.00;101925.34;7399116;19;20414;-53
2023/10/05 02:59:29;;;;;;;7.53;2.17;;;;;;;12.08;100.00;101918.50;7376117;19;20764;-52
2023/10/05 03:02:07;;;;;;;7.53;2.10;;;;;;;12.13;100.00;101924.81;7396260;19;20435;-53
2023/10/05 03:04:57;;;;;;;6.13;2.63;;;;;;;12.17;100.00;101927.53;7375585;19;20403;-53
2023/10/05 03:07:27;;;;;;;7.07;2.33;;;;;;;12.14;100.00;101915.34;7396887;19;20804;-53
2023/10/05 03:09:59;;;;;;;11.53;2.53;;;;;;;12.17;100.00;101912.94;7372920;19;20436;-53
2023/10/05 03:12:32;;;;;;;9.20;2.53;;;;;;;12.18;100.00;101904.34;7399054;19;20986;-51
2023/10/05 03:15:05;;;;;;;6.53;2.17;;;;;;;12.13;100.00;101905.78;7373041;19;20827;-56
2023/10/05 03:17:36;;;;;;;6.63;2.83;;;;;;;12.15;100.00;101910.25;7399249;19;20412;-50
2023/10/05 03:20:09;;;;;;;14.50;2.00;;;;;;;12.16;100.00;101895.63;7374337;19;20482;-50
2023/10/05 03:22:39;;;;;;;9.00;2.50;;;;;;;12.19;100.00;101894.91;7399144;19;20417;-53
2023/10/05 03:25:12;;;;;;;12.63;2.40;;;;;;;12.17;100.00;101896.50;7374555;19;20415;-55
2023/10/05 03:27:46;;;;;;;11.17;1.80;;;;;;;12.14;100.00;101902.41;7395207;19;20404;-54
2023/10/05 03:30:16;;;;;;;12.47;2.13;;;;;;;12.13;100.00;101888.59;7372083;19;21135;-56
2023/10/05 03:32:48;;;;;;;3.03;1.50;;;;;;;12.17;100.00;101891.31;7394074;19;20416;-51
2023/10/05 03:35:22;;;;;;;20.53;8.20;;;;;;;12.19;100.00;101880.25;7372204;19;20458;-51
2023/10/05 03:37:53;;;;;;;36.43;15.07;;;;;;;12.17;100.00;101881.88;7394973;19;20404;-55
2023/10/05 03:40:25;;;;;;;12.47;4.43;;;;;;;12.21;100.00;101883.81;7372323;19;20967;-53
2023/10/05 03:43:00;;;;;;;8.30;3.00;;;;;;;12.21;100.00;101891.56;7395620;19;20785;-52
2023/10/05 03:45:31;;;;;;;6.17;1.83;;;;;;;12.22;100.00;101892.47;7373437;19;20503;-52
2023/10/05 03:48:01;;;;;;;10.40;2.10;;;;;;;12.18;100.00;101899.19;7398256;19;20403;-53
2023/10/05 03:50:31;;;;;;;6.70;2.20;;;;;;;12.16;100.00;101895.63;7372800;19;20455;-54
2023/10/05 03:53:01;;;;;;;21.57;7.63;;;;;;;12.27;100.00;101891.88;7395279;19;20415;-53
2023/10/05 03:55:32;;;;;;;14.93;5.80;;;;;;;12.27;100.00;101902.25;7371825;19;20419;-54
2023/10/05 03:58:07;;;;;;;8.43;2.50;;;;;;;12.26;100.00;101894.41;7392207;19;20942;-51
2023/10/05 04:00:37;;;;;;;9.93;3.23;;;;;;;12.20;100.00;101900.13;7371917;19;20839;-49
2023/10/05 04:03:09;;;;;;;12.10;3.53;;;;;;;12.13;100.00;101895.44;7397179;19;21043;-52
2023/10/05 04:05:40;;;;;;;18.63;3.03;;;;;;;12.13;100.00;101892.84;7372903;19;21018;-50
2023/10/05 04:08:16;;;;;;;8.67;1.93;;;;;;;12.13;100.00;101893.75;7395248;19;20471;-48
2023/10/05 04:10:49;;;;;;;10.33;2.33;;;;;;;12.16;100.00;101890.44;7370584;19;20462;-51
2023/10/05 04:13:23;;;;;;;9.20;2.70;;;;;;;12.17;100.00;101894.81;7395357;19;20431;-48
2023/10/05 04:15:55;;;;;;;7.27;2.60;;;;;;;12.19;100.00;101897.50;7372942;19;20426;-53
2023/10/05 04:18:29;;;;;;;11.30;2.67;;;;;;;12.20;100.00;101897.53;7397341;19;21028;-51
2023/10/05 04:20:59;;;;;;;10.03;3.07;;;;;;;12.25;100.00;101896.09;7371270;19;20476;-52
2023/10/05 04:23:29;;;;;;;9.30;2.80;;;;;;;12.26;100.00;101902.19;7395195;19;20395;-53
2023/10/05 04:26:01;;;;;;;9.53;2.50;;;;;;;12.25;100.00;101893.50;7372136;19;20425;-53
2023/10/05 04:28:34;;;;;;;11.87;2.20;;;;;;;12.26;100.00;101897.00;7396782;19;20949;-48
2023/10/05 04:31:11;;;;;;;8.50;2.37;;;;;;;12.27;100.00;101901.38;7369379;19;20469;-50
2023/10/05 04:33:43;;;;;;;8.10;2.70;;;;;;;12.28;100.00;101891.09;7395958;19;20403;-49
2023/10/05 04:36:13;;;;;;;10.27;2.40;;;;;;;12.28;100.00;101914.41;7372048;19;20455;-50
2023/10/05 04:38:43;;;;;;;16.23;3.00;;;;;;;12.28;100.00;101895.38;7396763;19;20413;-53
2023/10/05 04:41:14;;;;;;;10.57;2.30;;;;;;;12.21;100.00;101896.75;7370976;19;20534;-54
2023/10/05 04:43:48;;;;;;;7.37;1.83;;;;;;;12.12;100.00;101886.81;7395102;19;20414;-52
2023/10/05 04:46:19;;;;;;;10.30;2.67;;;;;;;12.06;100.00;101858.03;7373481;19;20442;-53
2023/10/05 04:49:07;;;;;;;8.73;2.87;;;;;;;11.97;100.00;101827.34;7386808;19;20411;-51
2023/10/05 04:51:38;;;;;;;6.87;2.23;;;;;;;11.96;100.00;101791.06;7395224;19;20459;-53
2023/10/05 04:54:10;;;;;;;11.03;1.80;;;;;;;11.89;100.00;101751.94;7368788;19;20413;-55
2023/10/05 04:56:53;;;;;;;5.50;1.93;;;;;;;11.88;100.00;101708.81;7393707;19;20407;-49
2023/10/05 04:59:37;;;;;;;7.23;1.93;;;;;;;11.80;100.00;101662.66;7370031;19;20966;-53
2023/10/05 05:02:20;;;;;;;6.43;1.93;;;;;;;11.76;100.00;101643.53;7392798;19;20480;-55
2023/10/05 05:05:21;;;;;;;11.27;2.67;;;;;;;11.69;100.00;101613.88;7368739;19;20423;-51
2023/10/05 05:07:52;;;;;;;8.60;2.93;;;;;;;11.66;100.00;101603.41;7389218;19;20392;-53
2023/10/05 05:10:22;;;;;;;9.43;2.57;;;;;;;11.65;100.00;101591.28;7365975;19;20475;-48
2023/10/05 05:12:52;;;;;;;15.73;2.67;;;;;;;11.67;100.00;101583.59;7388809;19;20419;-51
2023/10/05 05:15:24;;;;;;;8.07;2.40;;;;;;;11.65;100.00;101565.44;7364749;19;20426;-53
2023/10/05 05:17:55;;;;;;;11.13;2.50;;;;;;;11.65;100.00;101555.09;7388793;19;20415;-55
2023/10/05 05:20:25;;;;;;;12.93;3.10;;;;;;;11.56;100.00;101554.63;7367481;19;20458;-53
2023/10/05 05:22:54;;;;;;;8.57;2.33;;;;;;;11.55;100.00;101561.50;7389918;19;20407;-52
2023/10/05 05:25:24;;;;;;;12.00;2.60;;;;;;;11.50;100.00;101538.81;7359101;19;20438;-51
2023/10/05 05:27:55;;;;;;;7.47;2.80;;;;;;;11.53;100.00;101523.47;7382555;19;20424;-53
2023/10/05 05:30:29;;;;;;;12.67;3.00;;;;;;;11.51;100.00;101530.25;7362806;19;20466;-51
2023/10/05 05:32:59;;;;;;;15.40;3.47;;;;;;;11.54;100.00;101525.25;7385136;19;20395;-53
2023/10/05 05:35:29;;;;;;;12.93;3.20;;;;;;;11.54;100.00;101520.06;7361015;19;20423;-52
2023/10/05 05:37:59;;;;;;;23.37;3.07;;;;;;;11.48;100.00;101539.63;7386687;19;20418;-53
2023/10/05 05:40:29;;;;;;;12.43;3.30;;;;;;;11.50;100.00;101536.22;7361168;19;20443;-51
2023/10/05 05:42:59;;;;;;;10.43;2.90;;;;;;;11.47;100.00;101540.44;7384468;19;20420;-50
2023/10/05 05:45:32;;;;;;;21.00;3.70;;;;;;;11.52;100.00;101527.75;7368730;19;20484;-54
2023/10/05 05:48:08;;;;;;;15.07;3.10;;;;;;;11.54;100.00;101535.59;7389135;19;20404;-50
2023/10/05 05:50:39;;;;;;;10.00;3.27;;;;;;;11.55;100.00;101519.25;7370186;19;20458;-50
2023/10/05 05:53:11;;;;;;;21.80;4.47;;;;;;;11.56;100.00;101524.50;7393728;19;20396;-48
2023/10/05 05:55:44;;;;;;;14.47;3.87;;;;;;;11.54;100.00;101513.19;7365651;19;20419;-48
2023/10/05 05:58:16;;;;;;;13.20;4.40;;;;;;;11.56;100.00;101509.00;7392167;19;20404;-50
2023/10/05 06:00:52;;;;;;;16.00;3.73;;;;;;;11.52;100.00;101499.31;7366296;19;20458;-49
2023/10/05 06:03:24;;;;;;;10.50;4.50;;;;;;;11.53;100.00;101502.81;7394466;19;20486;-53
2023/10/05 06:05:54;;;;;;;12.70;4.80;;;;;;;11.47;100.00;101499.09;7368643;19;20868;-51
2023/10/05 06:08:26;;;;;;;14.00;3.37;;;;;;;11.47;100.00;101493.03;7391558;19;20414;-49
2023/10/05 06:10:56;;;;;;;11.53;4.03;;;;;;;11.48;100.00;101475.03;7367336;19;20459;-52
2023/10/05 06:13:26;;;;;;;12.03;3.80;;;;;;;11.47;100.00;101478.44;7388200;19;20411;-50
2023/10/05 06:15:58;;;;;;;51.23;21.30;;;;;;;11.47;100.00;101459.44;7369414;19;20481;-49
2023/10/05 06:18:28;;;;;;;15.13;3.80;;;;;;;11.44;100.00;101462.75;7391178;19;20770;-50
2023/10/05 06:20:57;;;;;;;9.93;4.13;;;;;;;11.44;100.00;101461.88;7369036;19;20870;-49
2023/10/05 06:23:27;;;;;;;19.07;5.07;;;;;;;11.46;100.00;101466.31;7400231;19;20404;-53
2023/10/05 06:25:59;;;;;;;21.77;9.33;;;;;;;11.47;100.00;101464.59;7376005;19;20463;-53
2023/10/05 06:28:28;;;;;;;19.57;6.50;;;;;;;11.44;100.00;101421.41;7401692;19;20770;-50
2023/10/05 06:31:01;;;;;;;13.60;4.73;;;;;;;11.45;100.00;101405.09;7374384;19;20455;-51
2023/10/05 06:33:33;;;;;;;19.60;8.97;;;;;;;11.50;100.00;101383.75;7400422;19;20471;-54
2023/10/05 06:36:04;;;;;;;8.87;3.83;;;;;;;11.47;100.00;101380.22;7376658;19;20431;-49
2023/10/05 06:38:35;;;;;;;11.40;3.93;;;;;;;11.47;100.00;101385.41;7397582;19;20412;-51
2023/10/05 06:41:05;;;;;;;13.63;5.27;;;;;;;11.45;100.00;101389.59;7374309;19;20496;-48
2023/10/05 06:43:35;;;;;;;13.77;3.83;;;;;;;11.47;100.00;101397.41;7399901;19;20471;-50
2023/10/05 06:46:17;;;;;;;15.53;4.07;;;;;;;11.45;100.00;101387.00;7376146;19;20457;-50
2023/10/05 06:48:49;;;;;;;13.83;4.17;;;;;;;11.50;100.00;101389.84;7398311;19;20414;-51
2023/10/05 06:51:26;;;;;;;11.73;4.60;;;;;;;11.47;100.00;101393.16;7375310;19;20465;-52
2023/10/05 06:53:57;;;;;;;7.57;4.00;;;;;;;11.47;100.00;101398.31;7373893;19;20420;-51
2023/10/05 06:56:27;;;;;;;15.17;3.80;;;;;;;11.46;100.00;101401.72;7397881;19;21002;-54
2023/10/05 06:58:57;;;;;;;10.73;3.60;;;;;;;11.47;100.00;101397.41;7375321;19;20419;-48
2023/10/05 07:01:30;;;;;;;11.43;4.13;;;;;;;11.44;100.00;101390.41;7395680;19;20439;-51
2023/10/05 07:04:00;;;;;;;11.83;4.17;;;;;;;11.45;100.00;101410.25;7373156;19;20400;-52
2023/10/05 07:06:30;;;;;;;13.87;5.63;;;;;;;11.45;100.00;101407.66;7397693;19;20407;-51
2023/10/05 07:08:59;;;;;;;11.23;3.83;;;;;;;11.51;100.00;101411.38;7375967;19;20403;-52
2023/10/05 07:11:30;;;;;;;6.33;3.20;;;;;;;11.47;100.00;101400.91;7395875;19;20466;-52
2023/10/05 07:14:00;;;;;;;6.53;3.20;;;;;;;11.52;100.00;101406.28;7371614;19;20965;-52
2023/10/05 07:16:32;;;;;;;9.57;2.70;;;;;;;11.54;100.00;101396.03;7395898;19;20482;-52
2023/10/05 07:19:02;;;;;;;5.40;3.17;;;;;;;11.53;100.00;101410.63;7375005;19;20435;-47
2023/10/05 07:21:33;;;;;;;8.37;3.20;;;;;;;11.63;100.00;101411.97;7395997;19;20443;-45
2023/10/05 07:24:04;;;;;;;6.90;3.83;;;;;;;11.59;100.00;101405.75;7372191;19;20407;-50
2023/10/05 07:26:33;;;;;;;6.20;3.37;;;;;;;11.60;100.00;101401.50;7393714;19;20411;-50
2023/10/05 07:29:04;;;;;;;5.70;3.00;;;;;;;11.62;100.00;101399.84;7372913;19;20395;-49
2023/10/05 07:31:55;;;;;;;6.67;2.70;;;;;;;11.63;100.00;101388.69;7392331;19;20450;-47
2023/10/05 07:34:25;;;;;;;5.90;2.67;;;;;;;11.62;100.00;101384.34;7367276;19;20415;-49
2023/10/05 07:36:54;;;;;;;12.10;5.67;;;;;;;11.64;100.00;101387.03;7393019;19;20396;-51
2023/10/05 07:39:25;;;;;;;8.53;3.10;;;;;;;11.70;100.00;101370.06;7372719;19;20490;-49
2023/10/05 07:41:52;;;;;;;5.63;2.60;;;;;;;11.68;100.00;101373.41;7390210;19;20506;-49
2023/10/05 07:44:22;;;;;;;5.33;3.20;;;;;;;11.65;100.00;101379.34;7374887;19;20438;-49
2023/10/05 07:46:55;;;;;;;4.13;2.03;;;;;;;11.73;100.00;101371.94;7394182;19;20776;-50
2023/10/05 07:49:25;;;;;;;4.27;2.20;;;;;;;11.73;100.00;101365.06;7373340;19;20783;-46
2023/10/05 07:51:54;;;;;;;5.83;2.07;;;;;;;11.74;100.00;101379.75;7396092;19;20432;-49
2023/10/05 07:54:24;;;;;;;6.47;2.50;;;;;;;11.80;100.00;101379.16;7372739;19;20395;-47
2023/10/05 07:56:54;;;;;;;5.27;2.33;;;;;;;11.78;100.00;101360.09;7396699;19;21270;-47
2023/10/05 07:59:44;;;;;;;4.13;2.20;;;;;;;11.83;100.00;101361.22;7369770;19;20407;-49
2023/10/05 08:02:18;;;;;;;3.47;1.90;;;;;;;11.85;100.00;101356.97;7396834;19;20408;-45
2023/10/05 08:04:47;;;;;;;54.00;22.67;;;;;;;11.92;100.00;101360.75;7372177;19;20502;-47
2023/10/05 08:07:18;;;;;;;37.10;14.90;;;;;;;11.90;100.00;101352.06;7394621;19;21022;-51
2023/10/05 08:09:48;;;;;;;10.43;4.70;;;;;;;11.87;100.00;101357.06;7373371;19;20781;-51
2023/10/05 08:12:18;;;;;;;10.93;4.30;;;;;;;11.93;100.00;101361.63;7394629;19;20433;-49
2023/10/05 08:14:48;;;;;;;57.63;21.13;;;;;;;11.96;100.00;101359.19;7370939;19;20452;-50
2023/10/05 08:17:20;;;;;;;13.57;5.00;;;;;;;12.01;100.00;101347.38;7395379;19;20408;-45
2023/10/05 08:19:50;;;;;;;11.50;4.70;;;;;;;12.02;100.00;101349.13;7369131;19;20435;-48
2023/10/05 08:22:20;;;;;;;83.93;31.47;;;;;;;12.09;100.00;101350.31;7393980;19;20848;-49
2023/10/05 08:24:52;;;;;;;25.20;11.17;;;;;;;12.15;100.00;101366.09;7370550;19;20454;-51
2023/10/05 08:27:22;;;;;;;3.60;1.77;;;;;;;12.12;100.00;101369.47;7394641;19;20947;-47
2023/10/05 08:29:52;;;;;;;2.00;1.23;;;;;;;12.18;100.00;101376.59;7369954;19;20419;-48
2023/10/05 08:32:26;;;;;;;4.17;1.40;;;;;;;12.19;100.00;101380.94;7396258;19;20412;-51
2023/10/05 08:34:56;;;;;;;1.90;1.20;;;;;;;12.24;100.00;101389.81;7371559;19;20463;-49
2023/10/05 08:37:32;;;;;;;14.50;5.60;;;;;;;12.36;100.00;101393.78;7396685;19;20475;-47
2023/10/05 08:40:05;;;;;;;4.80;1.70;;;;;;;12.24;100.00;101396.69;7368943;19;20427;-50
2023/10/05 08:42:35;;;;;;;2.13;1.20;;;;;;;12.23;100.00;101413.03;7395024;19;20407;-46
2023/10/05 08:45:05;;;;;;;2.20;0.80;;;;;;;12.25;100.00;101426.94;7370511;19;20419;-52
2023/10/05 08:47:41;;;;;;;4.73;1.90;;;;;;;12.31;100.00;101423.72;7391727;19;20412;-50
2023/10/05 08:50:13;;;;;;;2.50;1.03;;;;;;;12.42;100.00;101425.09;7372151;19;20455;-52
2023/10/05 08:52:45;;;;;;;12.13;5.37;;;;;;;12.56;100.00;101429.19;7395582;19;20403;-51
2023/10/05 08:55:16;;;;;;;76.50;31.20;;;;;;;12.58;100.00;101425.75;7371052;19;20439;-46
2023/10/05 08:57:46;;;;;;;170.43;67.67;;;;;;;12.62;100.00;101430.28;7393803;19;20943;-49
2023/10/05 09:00:38;;;;;;;47.23;20.63;;;;;;;12.76;100.00;101430.88;7370099;19;20482;-52
2023/10/05 09:03:28;;;;;;;113.20;47.83;;;;;;;12.85;100.00;101435.56;7394182;19;20403;-52
2023/10/05 09:08:51;;;;;;;12.10;5.17;;;;;;;12.85;100.00;101461.44;7394048;19;20420;-47
2023/10/05 09:11:31;;;;;;;13.97;5.63;;;;;;;12.81;100.00;101463.91;7372264;19;20447;-51
2023/10/05 09:14:12;;;;;;;8.23;2.70;;;;;;;12.80;100.00;101477.69;7369088;19;20783;-47
2023/10/05 09:16:46;;;;;;;56.97;25.13;;;;;;;12.90;100.00;101484.16;7394296;19;20412;-47
2023/10/05 09:19:29;;;;;;;11.77;2.50;;;;;;;12.91;100.00;101500.56;7370650;19;20399;-48
2023/10/05 09:22:10;;;;;;;18.00;6.50;;;;;;;13.00;100.00;101500.97;7391422;19;20450;-51
2023/10/05 09:24:43;;;;;;;76.33;31.63;;;;;;;13.17;100.00;101514.66;7367779;19;20396;-49
2023/10/05 09:27:16;;;;;;;74.33;30.03;;;;;;;13.20;100.00;101517.41;7392088;19;20416;-48
2023/10/05 09:29:48;;;;;;;4.27;1.53;;;;;;;13.10;100.00;101521.31;7368003;19;20485;-47
2023/10/05 09:32:30;;;;;;;6.33;2.40;;;;;;;13.32;100.00;101539.44;7393904;19;20426;-51
2023/10/05 09:35:10;;;;;;;20.40;8.60;;;;;;;13.37;100.00;101569.06;7369276;19;20434;-49
2023/10/05 09:37:43;;;;;;;55.80;22.17;;;;;;;13.37;100.00;101584.59;7394485;19;20405;-50
2023/10/05 09:40:17;;;;;;;5.00;1.53;;;;;;;13.28;100.00;101642.09;7369342;19;20463;-51
2023/10/05 09:42:48;;;;;;;42.60;18.50;;;;;;;13.52;100.00;101718.34;7393993;19;20403;-50
2023/10/05 09:45:19;;;;;;;16.00;4.10;;;;;;;13.29;100.00;101747.56;7369307;19;20498;-50
2023/10/05 09:47:51;;;;;;;8.17;2.60;;;;;;;13.52;100.00;101770.19;7389404;19;20479;-51
2023/10/05 09:50:26;;;;;;;44.13;16.70;;;;;;;13.76;100.00;101797.22;7370371;19;20486;-51
2023/10/05 09:52:59;;;;;;;7.20;2.17;;;;;;;13.82;100.00;101801.81;7393026;19;20399;-48
2023/10/05 09:55:30;;;;;;;4.67;1.50;;;;;;;13.84;100.00;101815.72;7367921;19;20482;-51
2023/10/05 09:58:12;;;;;;;10.90;3.20;;;;;;;13.77;100.00;101824.06;7398837;19;20407;-47
2023/10/05 10:00:55;;;;;;;12.93;4.33;;;;;;;13.87;100.00;101841.81;7374955;19;20545;-46
2023/10/05 10:03:25;;;;;;;11.20;3.10;;;;;;;14.02;100.00;101853.72;7398081;19;20784;-49
2023/10/05 10:06:08;;;;;;;12.60;3.90;;;;;;;14.13;100.00;101869.75;7377117;19;20447;-49
2023/10/05 10:08:42;;;;;;;8.57;2.70;;;;;;;14.17;100.00;101882.91;7399292;19;20415;-47
2023/10/05 10:11:23;;;;;;;15.47;7.30;;;;;;;14.60;100.00;101897.75;7375386;19;20462;-49
2023/10/05 10:14:00;;;;;;;12.83;4.80;;;;;;;14.51;100.00;101924.22;7376263;19;20458;-49
2023/10/05 10:16:34;;;;;;;18.93;5.93;;;;;;;14.49;100.00;101944.91;7400094;19;20415;-48
2023/10/05 10:19:09;;;;;;;11.70;3.10;;;;;;;14.47;100.00;101958.63;7375669;19;20411;-48
2023/10/05 10:21:46;;;;;;;20.53;8.73;;;;;;;14.62;100.00;101967.13;7397048;19;20466;-47
2023/10/05 10:24:19;;;;;;;20.03;5.23;;;;;;;14.53;100.00;101972.78;7375398;19;20462;-49
2023/10/05 10:26:53;;;;;;;13.63;3.73;;;;;;;14.54;100.00;101986.66;7397432;19;20830;-46
2023/10/05 10:29:23;;;;;;;6.17;3.07;;;;;;;14.62;100.00;101993.09;7375270;19;20387;-50
2023/10/05 10:32:19;;;;;;;21.37;8.70;;;;;;;14.79;100.00;102004.25;7395643;19;20454;-46
2023/10/05 10:34:55;;;;;;;22.73;11.03;;;;;;;14.94;100.00;102013.53;7376170;19;20435;-46
2023/10/05 10:37:42;;;;;;;8.67;2.80;;;;;;;14.67;100.00;102033.13;7397432;19;20415;-48
2023/10/05 10:40:24;;;;;;;19.30;8.43;;;;;;;14.62;100.00;102051.94;7373927;19;20465;-52
2023/10/05 10:43:06;;;;;;;20.70;5.33;;;;;;;14.55;100.00;102064.63;7396093;19;20403;-47
2023/10/05 10:45:41;;;;;;;6.43;1.10;;;;;;;14.36;100.00;102065.47;7373057;19;20431;-45
2023/10/05 10:48:20;;;;;;;25.33;10.43;;;;;;;14.42;100.00;102081.34;7393649;19;20935;-51
2023/10/05 10:50:52;;;;;;;12.57;4.17;;;;;;;14.51;100.00;102096.47;7371736;19;20468;-46
2023/10/05 10:53:30;;;;;;;33.63;10.60;;;;;;;14.45;100.00;102107.47;7397064;19;20738;-45
2023/10/05 10:56:04;;;;;;;15.73;5.30;;;;;;;14.73;100.00;102113.06;7375081;19;20450;-48
2023/10/05 10:58:36;;;;;;;24.23;8.33;;;;;;;14.92;100.00;102146.00;7397454;19;20833;-48
2023/10/05 11:01:13;;;;;;;11.70;3.20;;;;;;;15.07;100.00;102178.72;7374249;19;20451;-51
2023/10/05 11:03:42;;;;;;;26.30;10.93;;;;;;;15.13;100.00;102212.78;7399412;19;20437;-49
2023/10/05 11:06:15;;;;;;;16.07;5.10;;;;;;;15.16;100.00;102228.50;7375066;19;20836;-49
2023/10/05 11:08:52;;;;;;;8.50;2.67;;;;;;;15.24;100.00;102236.69;7398190;19;20432;-47
2023/10/05 11:11:23;;;;;;;7.87;1.90;;;;;;;15.10;100.00;102208.34;7375349;19;20459;-52
2023/10/05 11:13:54;;;;;;;14.83;4.10;;;;;;;15.13;100.00;102197.19;7371374;19;20798;-46
2023/10/05 11:16:35;;;;;;;17.43;5.97;;;;;;;15.27;100.00;102178.75;7397818;19;20404;-46
2023/10/05 11:19:12;;;;;;;33.80;11.90;;;;;;;15.31;100.00;102152.03;7376262;19;20415;-47
2023/10/05 11:22:04;;;;;;;6.83;1.87;;;;;;;15.28;100.00;102138.91;7394882;19;20983;-50
2023/10/05 11:25:14;;;;;;;15.90;4.40;;;;;;;15.37;100.00;102160.09;7371880;19;20406;-46
2023/10/05 11:27:54;;;;;;;11.63;1.87;;;;;;;15.37;100.00;102140.19;7399296;19;20411;-50
2023/10/05 11:30:26;;;;;;;27.40;8.73;;;;;;;15.45;100.00;102111.03;7372604;19;20455;-49
2023/10/05 11:33:15;;;;;;;5.30;1.50;;;;;;;15.52;100.00;102113.06;7396369;19;21117;-52
2023/10/05 11:36:17;;;;;;;45.77;17.50;;;;;;;15.65;100.00;102052.94;7374295;19;20478;-47
2023/10/05 11:38:51;;;;;;;12.57;4.93;;;;;;;15.82;100.00;102005.91;7396220;19;20424;-45
2023/10/05 11:41:33;;;;;;;7.30;1.80;;;;;;;15.68;100.00;101922.09;7373721;19;20678;-47
2023/10/05 11:44:11;;;;;;;18.50;6.10;;;;;;;15.30;100.00;101877.25;7373518;19;20403;-47
2023/10/05 11:46:46;;;;;;;16.27;3.60;;;;;;;15.21;100.00;101826.69;7397062;19;20857;-49